x

West Sea Otter (46204) Wave Buoy

7:00am - Tue 6th Dec 2016 All times are PST. -8 hours from GMT.

  • Sig Wave height 5.6ft
  • Peak Period 12s
  • Wind
    18mph, 25mph gusts
  • Sea Temp 51°f
  • Air Temp 37°f
  • Sea Pressure 1024.2mb
  • West Sea Otter
  • West Sea Otter

More Historic Weather Station data

Upgrade to MSW Pro to gain access to the past 30 days of data for over 8000 Wavebouys and Weather Stations around the globe.

Join Pro

Comparision Forecast

View Surf forecast
   
Tue 12/06 7:00am 5.5ft 12s 18 25 mph 1024.2mb 51f 37f
6:00am 5.5ft 11s 20 25 mph 1023.9mb 51f 37f
5:00am 5.5ft 12s 20 27 mph 1023.5mb 51f 38f
4:00am 6ft 12s 20 25 mph 1023.5mb 51f 38f
3:00am 5.5ft 11s 20 25 mph 1023.3mb 51f 39f
2:00am 5.5ft 12s 18 22 mph 1022.9mb 51f 39f
1:00am 6ft 11s 20 25 mph 1022.3mb 51f 39f
12:00am 6.5ft 12s 20 25 mph 1021.6mb 51f 40f
Mon 12/05 11:00pm 6.5ft 11s 20 25 mph 1021.2mb 51f 40f
10:00pm  -   -  22
mph
1020.7mb 51f 40f
9:00pm 6ft 10s 22 27 mph 1020mb 51f 40f
8:00pm 6.5ft 12s 22 27 mph 1019.3mb 52f 41f
7:00pm 5.5ft 13s 18 22 mph 1019.1mb 51f 41f
6:00pm 6ft 14s 16 20 mph 1018.8mb 51f 42f
5:00pm 5ft 13s 16 18 mph 1018.2mb 51f 42f
4:00pm 5.5ft 12s 13 18 mph 1018mb 51f 42f
3:00pm 5ft 13s 13 18 mph 1017.5mb 51f 40f
2:00pm 5.5ft 13s 9 11 mph 1017.5mb 51f 41f
1:00pm 5.5ft 11s 9 11 mph 1017.4mb 52f 41f
12:00pm 6ft 11s 9 13 mph 1017.4mb 51f 40f
11:00am 6ft 11s 9 16 mph 1017.3mb 51f 40f
10:00am 6ft 12s 16
mph
1017mb 51f 39f
9:00am 6.5ft 13s 13 18 mph 1016.8mb 51f 38f
8:00am 7ft 13s 11 18 mph 1016.3mb 51f 38f
7:00am 7ft 10s 4 13 mph 1016.2mb 51f 38f
6:00am 8ft 11s 7 9 mph 1015.6mb 51f 39f
5:00am 7.5ft 12s 4 9 mph 1015.8mb 51f 38f
4:00am 8ft 13s 13 18 mph 1015.5mb 52f 39f
3:00am 7ft 13s 13 16 mph 1015.8mb 52f 39f
2:00am 7ft 13s 7 11 mph 1015.8mb 52f 40f
1:00am 8ft 13s 13 16 mph 1015.6mb 52f 41f
12:00am 8.5ft 13s 11 13 mph 1015.7mb 52f 43f
Sun 12/04 11:00pm 8ft 13s 11 16 mph 1015.7mb 52f 42f
10:00pm 8ft 14s 11 18 mph 1015.7mb 52f 42f
9:00pm 8ft 14s 9 13 mph 1015.5mb 52f 41f
8:00pm 8ft 9s 18 22 mph 1015.1mb 52f 43f
7:00pm 8.5ft 13s 13 18 mph 1014.9mb 52f 41f
6:00pm 9ft 10s 4 9 mph 1015.5mb 52f 40f
5:00pm 9ft 11s 11 16 mph 1015.6mb 52f 40f
3:00pm 10ft 14s 11 16 mph 1015.5mb 52f 42f
2:00pm 10ft 11s 18 22 mph 1015.5mb 52f 42f
1:00pm 11ft 10s 11 16 mph 1015.7mb 52f 40f
12:00pm 12ft 14s 16 22 mph 1016.2mb 52f 41f
11:00am 11ft 14s 25 31 mph 1016.9mb 52f 42f
10:00am 10.5ft 13s 20 25 mph 1017.3mb 52f 43f
9:00am 10.5ft 14s 9 16 mph 1018.1mb 52f 40f
8:00am 11ft 11s 16 20 mph 1018mb 52f 40f
7:00am 11.5ft 14s 11 16 mph 1018.3mb 52f 40f
6:00am 11.5ft 14s 11 16 mph 1018.6mb 52f 41f
5:00am 13ft 11s 25 29 mph 1018.6mb 52f 40f
4:00am 12.5ft 14s 18 27 mph 1018.1mb 52f 45f
3:00am 12.5ft 15s 20 25 mph 1018.5mb 52f 43f
2:00am 13ft 9s 22 29 mph 1018.2mb 52f 45f
1:00am 13ft 14s 27 34 mph 1018mb 52f 45f
12:00am 13ft 14s 25
mph
1017.6mb 52f 44f
Sat 12/03 10:00pm 14ft 15s 22 27 mph 1017.1mb 52f 44f
9:00pm 13ft 14s 18 25 mph 1016.9mb 52f 42f
8:00pm 13.5ft 15s 22 27 mph 1016.7mb 52f 43f
7:00pm 12.5ft 14s 27 34 mph 1016.9mb 52f 42f
6:00pm 13.5ft 14s 20 27 mph 1017.2mb 52f 42f
5:00pm 13.5ft 14s 20 29 mph 1017.3mb 52f 44f
4:00pm 13ft 15s 16 27 mph 1017.8mb 52f 44f
3:00pm 14ft 14s 20 29 mph 1018.1mb 52f 43f
2:00pm 15ft 15s 20 27 mph 1018.1mb 52f 44f
1:00pm 14.5ft 16s 18 29 mph 1018.5mb 52f 44f
12:00pm 14.5ft 13s 25 34 mph 1018.6mb 52f 44f
11:00am 15ft 14s 18 34 mph 1019.1mb 52f 44f
10:00am 16ft 13s 27 34 mph 1019.2mb 52f 43f
9:00am 15.5ft 14s 25 29 mph 1018.4mb 52f 46f
8:00am 16.5ft 15s 18 22 mph 1018.5mb 52f 45f
7:00am 17.5ft 15s 20 27 mph 1018.2mb 52f 46f
6:00am 16.5ft 16s 29 36 mph 1018mb 52f 45f
5:00am 18.5ft 16s 27 34 mph 1018.1mb 52f 45f
4:00am 19ft 16s 31 40 mph 1017.1mb 52f 47f
3:00am 19ft 17s 31 38 mph 1016.7mb 52f 48f
2:00am 19.5ft 17s 29 36 mph 1016.3mb 52f 48f
1:00am 17.5ft 16s 27 40 mph 1016.5mb 52f 47f
12:00am 18ft 17s 27 34 mph 1016.2mb 52f 48f
Fri 12/02 11:00pm 19.5ft 16s 27 36 mph 1015.8mb 52f 49f
10:00pm 19.5ft 17s 22 31 mph 1015.7mb 52f 50f
9:00pm 19.5ft 17s 22 29 mph 1015.5mb 52f 49f
8:00pm 18.5ft 17s 22 29 mph 1015.2mb 52f 49f
7:00pm 18.5ft 17s 22 31 mph 1014.8mb 52f 50f
6:00pm 20.5ft 17s 25 34 mph 1014mb 52f 50f
5:00pm 19.5ft 16s 29 38 mph 1013.4mb 52f 50f